createdAt,value
2023-03-25T00:00:17.705Z,8.60
2023-03-25T00:02:50.841Z,8.60
2023-03-25T00:05:20.650Z,8.60
2023-03-25T00:07:50.866Z,8.70
2023-03-25T00:10:20.668Z,8.90
2023-03-25T00:12:47.526Z,9.00
2023-03-25T00:15:18.099Z,9.00
2023-03-25T00:17:44.968Z,9.00
2023-03-25T00:20:12.687Z,9.10
2023-03-25T00:22:42.278Z,9.10
2023-03-25T00:25:10.581Z,9.10
2023-03-25T00:27:38.418Z,9.10
2023-03-25T00:30:06.734Z,9.20
2023-03-25T00:32:36.569Z,9.20
2023-03-25T00:35:03.588Z,9.20
2023-03-25T00:37:30.611Z,9.20
2023-03-25T00:39:57.387Z,9.30
2023-03-25T00:42:27.339Z,9.30
2023-03-25T00:44:54.608Z,9.30
2023-03-25T00:47:22.309Z,9.30
2023-03-25T00:49:52.109Z,9.20
2023-03-25T00:52:22.896Z,9.20
2023-03-25T00:54:49.689Z,9.20
2023-03-25T00:57:17.857Z,9.10
2023-03-25T00:59:44.773Z,9.10
2023-03-25T01:02:11.623Z,9.10
2023-03-25T01:04:43.089Z,9.10
2023-03-25T01:07:10.173Z,9.10
2023-03-25T01:09:38.700Z,9.10
2023-03-25T01:12:06.069Z,9.10
2023-03-25T01:14:32.998Z,9.00
2023-03-25T01:17:01.082Z,9.00
2023-03-25T01:19:28.269Z,9.00
2023-03-25T01:21:55.047Z,9.00
2023-03-25T01:24:21.776Z,9.00
2023-03-25T01:26:48.779Z,9.10
2023-03-25T01:29:18.450Z,9.00
2023-03-25T01:31:45.506Z,9.00
2023-03-25T01:34:13.592Z,9.00
2023-03-25T01:36:41.448Z,9.00
2023-03-25T01:39:09.119Z,9.00
2023-03-25T01:41:49.148Z,9.00
2023-03-25T01:44:21.222Z,9.00
2023-03-25T01:46:49.879Z,9.00
2023-03-25T01:49:27.408Z,9.00
2023-03-25T01:52:00.107Z,9.00
2023-03-25T01:54:27.935Z,9.00
2023-03-25T01:56:56.023Z,8.90
2023-03-25T01:59:27.684Z,8.90
2023-03-25T02:01:57.212Z,8.90
2023-03-25T02:04:39.422Z,8.90
2023-03-25T02:07:10.372Z,8.90
2023-03-25T02:09:39.163Z,8.90
2023-03-25T02:12:06.322Z,8.90
2023-03-25T02:14:35.438Z,8.90
2023-03-25T02:17:27.406Z,8.90
2023-03-25T02:20:09.554Z,8.90
2023-03-25T02:22:38.368Z,8.80
2023-03-25T02:25:57.014Z,8.80
2023-03-25T02:28:36.695Z,8.90
2023-03-25T02:31:03.418Z,8.80
2023-03-25T02:34:00.846Z,8.80
2023-03-25T02:36:30.819Z,8.80
2023-03-25T02:39:32.437Z,8.80
2023-03-25T02:42:12.566Z,8.80
2023-03-25T02:44:59.971Z,8.90
2023-03-25T02:47:32.404Z,8.90
2023-03-25T02:50:11.602Z,8.90
2023-03-25T02:52:44.715Z,8.90
2023-03-25T02:55:15.332Z,8.80
2023-03-25T02:57:46.151Z,8.70
2023-03-25T03:00:15.994Z,8.70
2023-03-25T03:02:50.848Z,8.60
2023-03-25T03:05:32.765Z,8.50
2023-03-25T03:08:21.162Z,8.50
2023-03-25T03:11:04.160Z,8.50
2023-03-25T03:13:49.700Z,8.60
2023-03-25T03:16:25.209Z,8.60
2023-03-25T03:19:31.545Z,8.60
2023-03-25T03:22:17.032Z,8.50
2023-03-25T03:24:52.640Z,8.50
2023-03-25T03:27:34.236Z,8.50
2023-03-25T03:30:13.131Z,8.40
2023-03-25T03:33:01.387Z,8.40
2023-03-25T03:35:38.341Z,8.20
2023-03-25T03:38:12.230Z,8.20
2023-03-25T03:40:42.991Z,8.20
2023-03-25T03:43:31.325Z,8.20
2023-03-25T03:46:06.714Z,8.20
2023-03-25T03:48:48.182Z,8.10
2023-03-25T03:51:25.020Z,8.10
2023-03-25T03:54:02.612Z,8.10
2023-03-25T03:56:37.711Z,8.00
2023-03-25T03:59:21.230Z,8.00
2023-03-25T04:01:58.488Z,8.00
2023-03-25T04:04:27.214Z,8.00
2023-03-25T04:07:04.591Z,8.00
2023-03-25T04:09:43.944Z,8.00
2023-03-25T04:12:28.777Z,8.00
2023-03-25T04:14:56.519Z,8.00
2023-03-25T04:17:24.293Z,8.10
2023-03-25T04:19:53.678Z,8.00
2023-03-25T04:22:21.983Z,8.00
2023-03-25T04:24:55.006Z,8.10
2023-03-25T04:27:25.386Z,8.10
2023-03-25T04:29:52.241Z,8.10
2023-03-25T04:32:19.284Z,8.10
2023-03-25T04:34:47.147Z,8.20
2023-03-25T04:37:14.192Z,8.20
2023-03-25T04:39:40.931Z,8.20
2023-03-25T04:42:09.007Z,8.20
2023-03-25T04:44:39.239Z,8.20
2023-03-25T04:47:12.199Z,8.30
2023-03-25T04:49:39.096Z,8.30
2023-03-25T04:52:06.537Z,8.20
2023-03-25T04:54:33.865Z,8.30
2023-03-25T04:57:01.502Z,8.30
2023-03-25T04:59:28.442Z,8.30
2023-03-25T05:01:55.438Z,8.30
2023-03-25T05:04:24.697Z,8.30
2023-03-25T05:06:51.680Z,8.30
2023-03-25T05:09:22.388Z,8.30
2023-03-25T05:11:53.615Z,8.40
2023-03-25T05:14:21.810Z,8.40
2023-03-25T05:16:48.935Z,8.40
2023-03-25T05:19:19.121Z,8.40
2023-03-25T05:21:46.350Z,8.50
2023-03-25T05:24:16.647Z,8.50
2023-03-25T05:26:43.546Z,8.50
2023-03-25T05:29:14.423Z,8.50
2023-03-25T05:31:46.672Z,8.50
2023-03-25T05:34:14.670Z,8.50
2023-03-25T05:36:44.925Z,8.50
2023-03-25T05:39:13.386Z,8.50
2023-03-25T05:41:40.498Z,8.60
2023-03-25T05:44:09.316Z,8.50
2023-03-25T05:46:36.575Z,8.50
2023-03-25T05:49:03.354Z,8.50
2023-03-25T05:51:33.758Z,8.50
2023-03-25T05:54:01.924Z,8.50
2023-03-25T05:56:29.767Z,8.50
2023-03-25T05:58:57.798Z,8.50
2023-03-25T06:01:33.255Z,8.40
2023-03-25T06:04:03.467Z,8.40
2023-03-25T06:06:34.532Z,8.40
2023-03-25T06:09:02.333Z,8.40
2023-03-25T06:11:29.538Z,8.50
2023-03-25T06:13:56.897Z,8.40
2023-03-25T06:16:29.840Z,8.50
2023-03-25T06:19:01.828Z,8.50
2023-03-25T06:21:32.916Z,8.40
2023-03-25T06:24:02.068Z,8.30
2023-03-25T06:26:29.500Z,8.20
2023-03-25T06:28:56.837Z,8.10
2023-03-25T06:31:33.622Z,8.10
2023-03-25T06:34:01.665Z,8.20
2023-03-25T06:36:28.541Z,8.20
2023-03-25T06:38:55.669Z,8.20
2023-03-25T06:41:25.414Z,8.30
2023-03-25T06:43:52.304Z,8.40
2023-03-25T06:46:19.223Z,8.50
2023-03-25T06:48:46.693Z,8.50
2023-03-25T06:51:13.581Z,8.40
2023-03-25T06:53:40.496Z,8.30
2023-03-25T06:56:08.194Z,8.30
2023-03-25T06:58:35.514Z,8.30
2023-03-25T07:01:07.239Z,8.40
2023-03-25T07:03:36.816Z,8.30
2023-03-25T07:06:05.444Z,8.40
2023-03-25T07:08:34.669Z,8.50
2023-03-25T07:11:07.715Z,8.80
2023-03-25T07:13:34.936Z,8.70
2023-03-25T07:16:02.164Z,8.90
2023-03-25T07:18:29.234Z,9.00
2023-03-25T07:20:56.154Z,8.90
2023-03-25T07:23:22.968Z,8.60
2023-03-25T07:25:50.274Z,8.50
2023-03-25T07:28:17.822Z,8.40
2023-03-25T07:30:44.692Z,8.30
2023-03-25T07:33:11.670Z,8.20
2023-03-25T07:35:38.912Z,8.10
2023-03-25T07:38:06.404Z,8.10
2023-03-25T07:40:33.470Z,8.10
2023-03-25T07:43:00.248Z,8.20
2023-03-25T07:45:27.246Z,8.20
2023-03-25T07:47:54.794Z,8.20
2023-03-25T07:50:25.199Z,8.00
2023-03-25T07:52:53.609Z,8.00
2023-03-25T07:55:21.264Z,8.00
2023-03-25T07:57:48.095Z,8.00
2023-03-25T08:00:15.763Z,8.20
2023-03-25T08:02:42.851Z,8.40
2023-03-25T08:05:10.133Z,8.30
2023-03-25T08:07:37.243Z,8.30
2023-03-25T08:10:05.229Z,8.20
2023-03-25T08:12:32.044Z,8.30
2023-03-25T08:14:59.971Z,8.30
2023-03-25T08:17:27.160Z,8.30
2023-03-25T08:19:54.192Z,8.40
2023-03-25T08:22:21.158Z,8.40
2023-03-25T08:24:48.336Z,8.50
2023-03-25T08:27:16.715Z,8.60
2023-03-25T08:29:45.450Z,8.60
2023-03-25T08:32:12.457Z,8.70
2023-03-25T08:34:42.182Z,8.80
2023-03-25T08:37:09.930Z,8.80
2023-03-25T08:39:40.298Z,8.80
2023-03-25T08:42:08.077Z,8.70
2023-03-25T08:44:35.290Z,8.80
2023-03-25T08:47:02.526Z,8.70
2023-03-25T08:49:29.355Z,8.80
2023-03-25T08:51:57.939Z,8.80
2023-03-25T08:54:28.512Z,8.80
2023-03-25T08:56:55.671Z,8.90
2023-03-25T08:59:22.940Z,9.00
2023-03-25T09:01:49.969Z,9.00
2023-03-25T09:04:17.113Z,9.10
2023-03-25T09:06:47.530Z,9.00
2023-03-25T09:09:16.664Z,9.10
2023-03-25T09:11:43.930Z,9.10
2023-03-25T09:14:11.213Z,9.20
2023-03-25T09:16:38.241Z,9.40
2023-03-25T09:19:05.155Z,9.50
2023-03-25T09:21:32.367Z,9.40
2023-03-25T09:23:59.514Z,9.50
2023-03-25T09:26:26.493Z,9.40
2023-03-25T09:28:55.554Z,9.40
2023-03-25T09:31:23.658Z,9.60
2023-03-25T09:33:50.879Z,9.70
2023-03-25T09:36:17.765Z,9.70
2023-03-25T09:38:44.966Z,9.70
2023-03-25T09:41:26.825Z,9.90
2023-03-25T09:44:06.308Z,10.20
2023-03-25T09:46:33.455Z,10.20
2023-03-25T09:49:01.118Z,10.40
2023-03-25T09:51:36.024Z,10.40
2023-03-25T09:54:21.794Z,10.40
2023-03-25T09:56:50.247Z,10.70
2023-03-25T09:59:26.225Z,10.60
2023-03-25T10:02:30.661Z,10.40
2023-03-25T10:05:00.679Z,10.60
2023-03-25T10:07:42.813Z,10.60
2023-03-25T10:10:58.083Z,10.40
2023-03-25T10:13:51.838Z,10.60
2023-03-25T10:16:36.327Z,10.60
2023-03-25T10:19:21.354Z,10.50
2023-03-25T10:22:02.441Z,10.30
2023-03-25T10:24:41.542Z,10.60
2023-03-25T10:27:17.633Z,10.60
2023-03-25T10:30:15.487Z,10.30
2023-03-25T10:32:51.215Z,10.20
2023-03-25T10:35:31.244Z,10.20
2023-03-25T10:38:14.404Z,10.10
2023-03-25T10:40:50.366Z,10.00
2023-03-25T10:43:23.358Z,9.90
2023-03-25T10:45:53.526Z,9.90
2023-03-25T10:48:31.334Z,9.90
2023-03-25T10:51:07.155Z,9.90
2023-03-25T10:53:34.463Z,10.30
2023-03-25T10:56:20.253Z,10.60
2023-03-25T10:58:51.869Z,10.70
2023-03-25T11:01:42.812Z,10.80
2023-03-25T11:04:14.876Z,10.90
2023-03-25T11:06:45.971Z,11.20
2023-03-25T11:09:25.597Z,11.00
2023-03-25T11:11:53.445Z,11.00
2023-03-25T11:14:36.900Z,11.10
2023-03-25T11:17:09.431Z,11.10
2023-03-25T11:19:52.771Z,11.10
2023-03-25T11:22:24.602Z,10.70
2023-03-25T11:24:58.067Z,10.50
2023-03-25T11:27:28.550Z,10.30
2023-03-25T11:30:08.025Z,10.10
2023-03-25T11:32:38.360Z,9.90
2023-03-25T11:35:22.348Z,9.90
2023-03-25T11:37:56.649Z,10.10
2023-03-25T11:40:24.429Z,10.20
2023-03-25T11:42:57.646Z,10.40
2023-03-25T11:45:30.752Z,10.60
2023-03-25T11:48:09.748Z,10.70
2023-03-25T11:50:38.047Z,10.80
2023-03-25T11:53:06.353Z,11.10
2023-03-25T11:55:44.095Z,11.30
2023-03-25T11:58:17.319Z,11.30
2023-03-25T12:00:50.983Z,11.30
2023-03-25T12:03:20.836Z,11.30
2023-03-25T12:06:06.481Z,11.00
2023-03-25T12:08:51.216Z,11.20
2023-03-25T12:11:25.312Z,11.20
2023-03-25T12:14:04.512Z,11.30
2023-03-25T12:17:06.641Z,11.20
2023-03-25T12:19:52.356Z,11.20
2023-03-25T12:22:45.536Z,11.30
2023-03-25T12:25:21.274Z,11.20
2023-03-25T12:28:08.964Z,11.20
2023-03-25T12:31:07.812Z,10.90
2023-03-25T12:33:34.648Z,10.70
2023-03-25T12:36:26.018Z,10.70
2023-03-25T12:39:35.690Z,10.80
2023-03-25T12:42:29.706Z,10.80
2023-03-25T12:45:03.781Z,10.70
2023-03-25T12:47:48.341Z,10.60
2023-03-25T12:50:41.066Z,10.30
2023-03-25T12:53:32.903Z,9.80
2023-03-25T12:56:05.795Z,9.50
2023-03-25T12:58:59.532Z,9.20
2023-03-25T13:01:51.245Z,9.10
2023-03-25T13:04:36.459Z,9.50
2023-03-25T13:07:10.677Z,9.60
2023-03-25T13:09:55.988Z,9.80
2023-03-25T13:12:43.199Z,9.60
2023-03-25T13:15:28.051Z,9.90
2023-03-25T13:18:10.985Z,10.00
2023-03-25T13:20:43.371Z,10.20
2023-03-25T13:23:17.864Z,9.80
2023-03-25T13:25:53.496Z,10.00
2023-03-25T13:28:43.826Z,10.10
2023-03-25T13:31:16.758Z,9.90
2023-03-25T13:33:56.975Z,10.10
2023-03-25T13:36:30.987Z,10.00
2023-03-25T13:39:05.136Z,9.70
2023-03-25T13:41:41.007Z,9.90
2023-03-25T13:44:11.124Z,9.80
2023-03-25T13:46:49.536Z,10.00
2023-03-25T13:49:32.970Z,10.10
2023-03-25T13:51:59.881Z,10.30
2023-03-25T13:54:59.074Z,10.40
2023-03-25T13:57:48.056Z,10.80
2023-03-25T14:00:36.531Z,10.90
2023-03-25T14:03:22.227Z,11.10
2023-03-25T14:06:19.701Z,10.80
2023-03-25T14:09:13.330Z,10.50
2023-03-25T14:11:51.877Z,10.30
2023-03-25T14:14:22.706Z,10.10
2023-03-25T14:16:59.702Z,9.90
2023-03-25T14:19:38.457Z,9.80
2023-03-25T14:22:14.922Z,9.80
2023-03-25T14:24:42.653Z,9.70
2023-03-25T14:27:25.120Z,9.60
2023-03-25T14:29:58.657Z,9.50
2023-03-25T14:32:38.098Z,9.40
2023-03-25T14:35:38.955Z,9.40
2023-03-25T14:38:08.819Z,9.50
2023-03-25T14:43:46.859Z,9.50
2023-03-25T14:46:14.803Z,9.40
2023-03-25T14:48:48.387Z,9.30
2023-03-25T14:51:20.953Z,9.20
2023-03-25T14:54:02.321Z,9.00
2023-03-25T14:57:04.191Z,9.00
2023-03-25T15:00:14.172Z,9.10
2023-03-25T15:02:43.637Z,9.00
2023-03-25T15:05:27.516Z,9.00
2023-03-25T15:08:01.625Z,9.00
2023-03-25T15:10:38.494Z,9.00
2023-03-25T15:13:06.266Z,9.00
2023-03-25T15:15:46.261Z,9.00
2023-03-25T15:18:31.911Z,8.90
2023-03-25T15:21:12.383Z,9.10
2023-03-25T15:23:52.681Z,9.10
2023-03-25T15:26:35.714Z,9.30
2023-03-25T15:29:14.809Z,9.20
2023-03-25T15:32:19.530Z,9.10
2023-03-25T15:34:54.153Z,9.00
2023-03-25T15:37:46.464Z,9.10
2023-03-25T15:40:26.779Z,9.10
2023-03-25T15:43:08.772Z,9.10
2023-03-25T15:46:06.964Z,9.00
2023-03-25T15:49:21.861Z,9.20
2023-03-25T15:52:16.336Z,9.30
2023-03-25T15:54:57.344Z,9.30
2023-03-25T15:57:28.549Z,9.40
2023-03-25T16:00:24.162Z,9.50
2023-03-25T16:03:06.112Z,9.40
2023-03-25T16:05:39.102Z,9.50
2023-03-25T16:08:21.597Z,9.50
2023-03-25T16:10:49.304Z,9.50
2023-03-25T16:13:24.131Z,9.50
2023-03-25T16:15:54.990Z,9.50
2023-03-25T16:18:22.850Z,9.40
2023-03-25T16:20:58.289Z,9.40
2023-03-25T16:23:27.466Z,9.30
2023-03-25T16:25:56.542Z,9.40
2023-03-25T16:28:31.690Z,9.30
2023-03-25T16:31:01.463Z,9.30
2023-03-25T16:33:31.994Z,9.20
2023-03-25T16:36:02.588Z,9.20
2023-03-25T16:38:30.625Z,9.20
2023-03-25T16:41:11.973Z,9.20
2023-03-25T16:43:39.056Z,9.00
2023-03-25T16:46:08.665Z,9.00
2023-03-25T16:48:41.917Z,8.90
2023-03-25T16:51:16.969Z,8.80
2023-03-25T16:53:48.221Z,8.60
2023-03-25T16:56:17.531Z,8.50
2023-03-25T16:59:04.227Z,8.50
2023-03-25T17:01:45.427Z,8.30
2023-03-25T17:04:17.437Z,8.20
2023-03-25T17:06:53.414Z,8.20
2023-03-25T17:09:34.517Z,8.20
2023-03-25T17:12:06.141Z,8.20
2023-03-25T17:14:37.890Z,8.20
2023-03-25T17:17:29.234Z,8.20
2023-03-25T17:20:02.628Z,8.20
2023-03-25T17:22:35.233Z,8.20
2023-03-25T17:25:33.422Z,8.20
2023-03-25T17:28:18.311Z,8.30
2023-03-25T17:30:48.248Z,8.30
2023-03-25T17:33:35.744Z,8.30
2023-03-25T17:36:08.028Z,8.30
2023-03-25T17:38:49.226Z,8.30
2023-03-25T17:41:18.428Z,8.30
2023-03-25T17:43:51.331Z,8.40
2023-03-25T17:46:31.054Z,8.40
2023-03-25T17:49:01.679Z,8.30
2023-03-25T17:51:31.445Z,8.20
2023-03-25T17:53:58.221Z,8.20
2023-03-25T17:56:28.378Z,8.10
2023-03-25T17:59:04.303Z,8.10
2023-03-25T18:01:31.773Z,8.10
2023-03-25T18:03:58.891Z,8.00
2023-03-25T18:06:26.265Z,7.90
2023-03-25T18:08:53.569Z,7.90
2023-03-25T18:11:23.524Z,7.80
2023-03-25T18:13:50.504Z,7.90
2023-03-25T18:16:20.687Z,7.90
2023-03-25T18:18:48.338Z,7.90
2023-03-25T18:21:17.201Z,7.80
2023-03-25T18:23:47.723Z,7.80
2023-03-25T18:26:19.408Z,7.80
2023-03-25T18:28:47.296Z,7.70
2023-03-25T18:31:19.863Z,7.70
2023-03-25T18:33:48.659Z,7.70
2023-03-25T18:36:15.829Z,7.70
2023-03-25T18:38:43.937Z,7.80
2023-03-25T18:41:14.515Z,7.70
2023-03-25T18:43:42.237Z,7.60
2023-03-25T18:46:16.216Z,7.60
2023-03-25T18:48:43.422Z,7.50
2023-03-25T18:51:14.647Z,7.40
2023-03-25T18:53:42.029Z,7.40
2023-03-25T18:56:09.658Z,7.40
2023-03-25T18:58:36.722Z,7.40
2023-03-25T19:01:06.274Z,7.50
2023-03-25T19:03:41.877Z,7.40
2023-03-25T19:06:11.952Z,7.40
2023-03-25T19:08:39.937Z,7.30
2023-03-25T19:11:18.879Z,7.20
2023-03-25T19:13:47.490Z,7.10
2023-03-25T19:16:14.451Z,7.10
2023-03-25T19:18:41.474Z,7.00
2023-03-25T19:21:08.698Z,7.00
2023-03-25T19:23:36.814Z,7.00
2023-03-25T19:26:04.087Z,7.00
2023-03-25T19:28:31.103Z,6.90
2023-03-25T19:31:01.129Z,7.00
2023-03-25T19:33:31.187Z,6.90
2023-03-25T19:36:02.030Z,6.90
2023-03-25T19:38:35.042Z,7.00
2023-03-25T19:41:13.770Z,6.90
2023-03-25T19:43:41.465Z,6.90
2023-03-25T19:46:08.682Z,7.00
2023-03-25T19:48:36.164Z,7.00
2023-03-25T19:51:06.074Z,7.00
2023-03-25T19:53:33.018Z,7.00
2023-03-25T19:56:04.842Z,7.10
2023-03-25T19:58:32.043Z,7.10
2023-03-25T20:00:59.102Z,7.10
2023-03-25T20:03:26.883Z,7.10
2023-03-25T20:05:58.323Z,7.10
2023-03-25T20:08:32.674Z,7.10
2023-03-25T20:11:00.180Z,7.10
2023-03-25T20:13:29.929Z,7.10
2023-03-25T20:15:56.827Z,7.00
2023-03-25T20:18:25.003Z,6.90
2023-03-25T20:23:24.794Z,7.00
2023-03-25T20:25:57.317Z,7.00
2023-03-25T20:28:24.037Z,7.00
2023-03-25T20:30:51.351Z,7.10
2023-03-25T20:33:21.316Z,7.10
2023-03-25T20:35:48.210Z,7.10
2023-03-25T20:38:15.333Z,7.20
2023-03-25T20:40:44.835Z,7.30
2023-03-25T20:43:14.100Z,7.30
2023-03-25T20:45:42.408Z,7.30
2023-03-25T20:48:09.290Z,7.30
2023-03-25T20:50:36.667Z,7.40
2023-03-25T20:53:04.370Z,7.40
2023-03-25T20:55:31.452Z,7.40
2023-03-25T20:57:59.654Z,7.40
2023-03-25T21:00:27.143Z,7.40
2023-03-25T21:02:57.011Z,7.40
2023-03-25T21:05:24.305Z,7.40
2023-03-25T21:07:53.816Z,7.40
2023-03-25T21:10:20.640Z,7.50
2023-03-25T21:12:48.192Z,7.40
2023-03-25T21:15:18.127Z,7.50
2023-03-25T21:17:44.958Z,7.40
2023-03-25T21:20:12.682Z,7.50
2023-03-25T21:22:43.051Z,7.50
2023-03-25T21:25:11.622Z,7.40
2023-03-25T21:27:39.921Z,7.40
2023-03-25T21:30:09.831Z,7.30
2023-03-25T21:32:40.556Z,7.40
2023-03-25T21:35:11.446Z,7.40
2023-03-25T21:37:40.179Z,7.30
2023-03-25T21:40:11.636Z,7.40
2023-03-25T21:42:42.849Z,7.30
2023-03-25T21:45:13.608Z,7.30
2023-03-25T21:47:41.276Z,7.30
2023-03-25T21:50:13.009Z,7.30
2023-03-25T21:52:47.213Z,7.30
2023-03-25T21:55:18.852Z,7.30
2023-03-25T21:57:47.878Z,7.30
2023-03-25T22:00:17.443Z,7.30
2023-03-25T22:02:45.924Z,7.30
2023-03-25T22:05:15.724Z,7.30
2023-03-25T22:07:42.962Z,7.30
2023-03-25T22:10:11.668Z,7.30
2023-03-25T22:12:39.141Z,7.30
2023-03-25T22:15:06.968Z,7.30
2023-03-25T22:17:34.040Z,7.30
2023-03-25T22:20:01.228Z,7.40
2023-03-25T22:22:29.975Z,7.40
2023-03-25T22:24:59.077Z,7.40
2023-03-25T22:27:26.211Z,7.40
2023-03-25T22:29:53.007Z,7.40
2023-03-25T22:32:20.127Z,7.40
2023-03-25T22:34:50.581Z,7.40
2023-03-25T22:37:17.299Z,7.40
2023-03-25T22:39:44.885Z,7.50
2023-03-25T22:42:11.688Z,7.40
2023-03-25T22:44:38.668Z,7.50
2023-03-25T22:47:05.640Z,7.50
2023-03-25T22:49:32.636Z,7.50
2023-03-25T22:51:59.870Z,7.50
2023-03-25T22:54:27.059Z,7.60
2023-03-25T22:56:53.863Z,7.60
2023-03-25T22:59:21.002Z,7.60
2023-03-25T23:01:48.212Z,7.60
2023-03-25T23:04:18.778Z,7.60
2023-03-25T23:06:53.911Z,7.70
2023-03-25T23:09:42.857Z,7.70
2023-03-25T23:12:11.847Z,7.70
2023-03-25T23:14:42.821Z,7.70
2023-03-25T23:17:12.904Z,7.70
2023-03-25T23:19:40.402Z,7.70
2023-03-25T23:22:07.414Z,7.70
2023-03-25T23:24:37.046Z,7.80
2023-03-25T23:27:08.849Z,7.80
2023-03-25T23:29:36.605Z,7.70
2023-03-25T23:32:06.460Z,7.80
2023-03-25T23:34:34.573Z,7.80
2023-03-25T23:37:06.216Z,7.70
2023-03-25T23:39:33.474Z,7.80
2023-03-25T23:42:00.336Z,7.80
2023-03-25T23:44:27.614Z,7.70
2023-03-25T23:46:54.636Z,7.60
2023-03-25T23:49:21.748Z,7.70
2023-03-25T23:51:48.579Z,7.60
2023-03-25T23:54:16.233Z,7.50
2023-03-25T23:56:44.285Z,7.50
2023-03-25T23:59:13.316Z,7.50
